Main page
METAR-TAF:

METAR-TAF

Airports :

Menorca Airport

Minorca, Spain

latitude: 39-52N, longitude: 004-14E, elevation: 87 m

Current weather observation

The report was made 23 minutes ago, at 19:30 UTC
Wind 9 kt from the North/Northeast, varying between North and Northeast
Temperature 25°C
Humidity 65%
Pressure 1014 hPa
Visibility 10 km or more
no clouds below 1500 m and no cumulonimbus

METAR: LEMH 281930Z 02009KT 350V050 CAVOK 25/18 Q1014

Time: 21:53 (19:53 UTC)

Forecast

The report was made 5 hours and 53 minutes ago, at 14:00 UTC
Forecast valid from 28 at 15 UTC to 29 at 15 UTC
Wind 15 kt from the Northeast
Visibility 10 km or more
Few clouds at a height of 2500 ft
Becoming
from 28 at 21 UTC to 28 at 23 UTC
Wind 5 kt from the North/Northeast
Becoming
from 29 at 09 UTC to 29 at 11 UTC
Wind 10 kt from the East

TAF: LEMH 281400Z 2815/2915 04015KT 9999 FEW025 TX31/2912Z TN20/2905Z BECMG 2821/2823 02005KT BECMG 2909/2911 09010KT

Weather observations and forecasts of more than 4000 airports (METAR and TAF reports).

The available stations are represented by yellow and red dots on the map.

Hover mouse over dot to see the name of the station.

Then click to see weather observations and forecasts.

To change the map : click on the green buttons with a black cross to zoom in, on the green button with a dash to zoom out, or on the green arrows for adjacent maps.


METAR-TAF: